Kezdőlap
METAR-TAF:

METAR-TAF

Repülőterek :

Tasiujaq, Québec, Kanada

földrajzi szélesség: 58-40N, földrajzi hosszúság: 069-57W, magasság: 31 m

Jelenlegi meteorológiai megfigyelések

A jelentés 13 órával és 37 perccel ezelõtt készült, 21:00 UTC
Déli szél 8 kt
Hőmérséklet 6°C
Páratartalom 61%
Légköri nyomás 1006 hPa
Látótávolság: 24.1 km
Szakadozott felhőzet 9000 lábon
Szakadozott felhőzet 24000 lábon

METAR: CYTQ 252100Z 19008KT 15SM BKN090 BKN240 06/M01 A2970 RMK AC6CI1 LAST STFD OBS/NEXT 261200UTC SLP060

Idő: 06:37 (10:37 UTC)

Előrejelzés

A jelentés 18 órával és 35 perccel ezelõtt készült, 16:02 UTC
Az előrejelzés 25-én 16 óra UTC és 25-én 21 óra UTC között érvényes
Dél-délnyugati szél 18 kt
Látótávolság: 10 km
Szórványos felhőzet 20000 lábon

TAF: CYTQ 251602Z 2516/2521 20018KT P6SM SCT200 RMK NXT FCST WILL BE ISSUED AT 261345Z

Meteorológiai megfigyelések és előrejelzések több, mint 4000 repülőtéren (METAR és TAF jelentéseket).

A térképen piros és sárga pontok jelzik az elérhető meteorológiai állomásokat.

Mozgassa az egeret a pont fölött, hogy megjelenjen az állomás neve.

Azután kattintson az időjárási megfigyelések és előrejelzések megtekintéséhez.

A térkép megváltoztatása: kattintson a fekete keresztel jelölt zöld gombra ráközelítéshez, a vonallal jelölt zöld gombra távolításhoz, vagy a zöld nyilakra a szomszédos térképek eléréséhez.


METAR-TAF: